createdAt,value
2017-06-04T00:00:51.284Z,18.00
2017-06-04T00:03:17.608Z,18.10
2017-06-04T00:05:43.982Z,18.20
2017-06-04T00:08:10.283Z,18.20
2017-06-04T00:10:36.567Z,18.10
2017-06-04T00:13:03.578Z,18.00
2017-06-04T00:15:30.999Z,18.00
2017-06-04T00:22:53.661Z,17.80
2017-06-04T00:25:19.994Z,17.80
2017-06-04T00:27:46.330Z,17.80
2017-06-04T00:30:12.727Z,17.80
2017-06-04T00:32:39.057Z,17.80
2017-06-04T00:35:05.349Z,17.80
2017-06-04T00:37:31.641Z,17.80
2017-06-04T00:39:57.945Z,17.80
2017-06-04T00:42:24.226Z,17.70
2017-06-04T00:44:50.587Z,17.70
2017-06-04T00:47:17.657Z,17.60
2017-06-04T00:49:45.690Z,17.50
2017-06-04T00:52:11.976Z,17.50
2017-06-04T00:57:06.389Z,17.60
2017-06-04T00:59:33.582Z,17.50
2017-06-04T01:06:58.554Z,17.40
2017-06-04T01:09:27.238Z,17.30
2017-06-04T01:11:53.911Z,17.20
2017-06-04T01:16:48.964Z,17.20
2017-06-04T01:21:43.304Z,17.30
2017-06-04T01:29:05.625Z,17.10
2017-06-04T01:31:32.702Z,17.10
2017-06-04T01:33:58.978Z,16.90
2017-06-04T01:36:27.330Z,16.90
2017-06-04T01:38:53.647Z,17.00
2017-06-04T01:41:19.932Z,17.00
2017-06-04T01:43:47.003Z,16.90
2017-06-04T01:46:13.278Z,17.00
2017-06-04T01:48:39.602Z,17.10
2017-06-04T01:51:05.917Z,17.10
2017-06-04T01:53:33.345Z,17.10
2017-06-04T01:55:59.625Z,17.10
2017-06-04T02:03:22.250Z,16.90
2017-06-04T02:05:48.599Z,16.90
2017-06-04T02:08:15.234Z,16.90
2017-06-04T02:10:41.542Z,16.90
2017-06-04T02:13:07.813Z,17.00
2017-06-04T02:15:34.096Z,17.20
2017-06-04T02:18:01.474Z,17.30
2017-06-04T02:20:27.753Z,17.20
2017-06-04T02:22:54.059Z,17.20
2017-06-04T02:25:20.322Z,17.20
2017-06-04T02:27:47.342Z,17.20
2017-06-04T02:30:13.981Z,17.20
2017-06-04T02:32:40.254Z,17.40
2017-06-04T02:42:31.481Z,17.40
2017-06-04T02:44:57.764Z,17.50
2017-06-04T02:47:24.107Z,17.60
2017-06-04T02:49:50.795Z,17.50
2017-06-04T02:52:17.838Z,17.40
2017-06-04T02:54:44.144Z,17.40
2017-06-04T02:57:10.427Z,17.40
2017-06-04T02:59:36.725Z,17.40
2017-06-04T03:02:03.739Z,17.50
2017-06-04T03:04:30.030Z,17.50
2017-06-04T03:06:56.294Z,17.40
2017-06-04T03:11:53.467Z,17.40
2017-06-04T03:14:19.744Z,17.40
2017-06-04T03:16:46.055Z,17.40
2017-06-04T03:19:12.321Z,17.40
2017-06-04T03:24:07.329Z,17.40
2017-06-04T03:26:33.610Z,17.40
2017-06-04T03:29:00.618Z,17.40
2017-06-04T03:31:26.912Z,17.40
2017-06-04T03:33:53.245Z,17.40
2017-06-04T03:36:19.534Z,17.40
2017-06-04T03:38:46.541Z,17.30
2017-06-04T03:41:12.820Z,17.30
2017-06-04T03:48:35.102Z,17.40
2017-06-04T03:51:01.424Z,17.40
2017-06-04T03:53:28.057Z,17.50
2017-06-04T03:55:54.352Z,17.50
2017-06-04T03:58:20.622Z,17.60
2017-06-04T04:00:46.887Z,17.70
2017-06-04T04:03:13.162Z,17.70
2017-06-04T04:05:40.195Z,17.50
2017-06-04T04:08:06.494Z,17.60
2017-06-04T04:10:32.770Z,17.70
2017-06-04T04:12:59.048Z,17.60
2017-06-04T04:15:25.354Z,17.70
2017-06-04T04:17:51.634Z,17.60
2017-06-04T04:25:13.939Z,17.60
2017-06-04T04:27:40.222Z,17.60
2017-06-04T04:30:06.510Z,17.60
2017-06-04T04:32:32.807Z,17.60
2017-06-04T04:34:59.114Z,17.70
2017-06-04T04:37:27.705Z,17.70
2017-06-04T04:39:54.453Z,17.70
2017-06-04T04:42:21.490Z,17.70
2017-06-04T04:44:48.135Z,17.60
2017-06-04T04:47:15.146Z,17.60
2017-06-04T04:49:41.427Z,17.60
2017-06-04T04:52:08.080Z,17.70
2017-06-04T04:59:30.405Z,17.80
2017-06-04T05:01:57.433Z,17.80
2017-06-04T05:04:23.815Z,17.80
2017-06-04T05:06:50.102Z,17.90
2017-06-04T05:09:17.114Z,17.90
2017-06-04T05:11:43.398Z,17.90
2017-06-04T05:14:10.420Z,17.90
2017-06-04T05:16:37.468Z,17.90
2017-06-04T05:19:05.244Z,17.80
2017-06-04T05:21:31.552Z,17.80
2017-06-04T05:24:03.823Z,17.80
2017-06-04T05:28:58.666Z,17.80
2017-06-04T05:31:25.202Z,17.80
2017-06-04T05:33:51.730Z,18.00
2017-06-04T05:36:18.255Z,18.00
2017-06-04T05:38:44.810Z,17.80
2017-06-04T05:41:11.301Z,17.80
2017-06-04T05:43:37.737Z,17.90
2017-06-04T05:46:04.993Z,17.90
2017-06-04T05:48:31.546Z,17.90
2017-06-04T05:50:58.596Z,17.80
2017-06-04T05:53:25.173Z,17.90
2017-06-04T05:55:52.550Z,18.00
2017-06-04T05:58:19.859Z,18.00
2017-06-04T06:03:15.122Z,17.90
2017-06-04T06:05:42.399Z,18.00
2017-06-04T06:08:09.638Z,18.00
2017-06-04T06:10:36.796Z,18.10
2017-06-04T06:13:03.308Z,18.20
2017-06-04T06:15:30.557Z,18.30
2017-06-04T06:17:56.960Z,18.40
2017-06-04T06:20:23.581Z,18.50
2017-06-04T06:22:50.121Z,18.60
2017-06-04T06:25:16.950Z,18.60
2017-06-04T06:27:43.544Z,18.80
2017-06-04T06:30:10.789Z,18.80
2017-06-04T06:37:33.734Z,18.60
2017-06-04T06:40:00.254Z,18.50
2017-06-04T06:42:26.783Z,18.50
2017-06-04T06:44:53.306Z,18.40
2017-06-04T06:47:19.903Z,18.30
2017-06-04T06:49:46.427Z,18.50
2017-06-04T06:52:12.922Z,18.40
2017-06-04T06:54:39.469Z,18.50
2017-06-04T06:57:05.967Z,18.50
2017-06-04T06:59:32.579Z,18.70
2017-06-04T07:01:59.826Z,18.70
2017-06-04T07:04:26.342Z,18.50
2017-06-04T07:11:50.538Z,18.60
2017-06-04T07:14:17.155Z,18.80
2017-06-04T07:16:43.659Z,18.80
2017-06-04T07:19:10.230Z,18.70
2017-06-04T07:21:37.115Z,18.90
2017-06-04T07:24:04.374Z,18.90
2017-06-04T07:26:31.606Z,18.90
2017-06-04T07:28:58.890Z,19.10
2017-06-04T07:31:26.187Z,18.90
2017-06-04T07:33:52.677Z,19.00
2017-06-04T07:36:19.218Z,18.90
2017-06-04T07:38:45.757Z,18.70
2017-06-04T07:43:41.263Z,18.80
2017-06-04T07:46:08.334Z,18.80
2017-06-04T07:48:34.724Z,19.00
2017-06-04T07:51:00.996Z,19.10
2017-06-04T07:53:27.286Z,19.20
2017-06-04T07:55:54.311Z,19.30
2017-06-04T07:58:20.642Z,19.20
2017-06-04T08:00:48.104Z,19.10
2017-06-04T08:03:14.459Z,19.20
2017-06-04T08:05:41.506Z,19.20
2017-06-04T08:08:08.531Z,19.40
2017-06-04T08:10:34.810Z,19.30
2017-06-04T08:13:01.142Z,19.00
2017-06-04T08:20:23.530Z,19.30
2017-06-04T08:22:49.810Z,19.30
2017-06-04T08:25:16.948Z,19.30
2017-06-04T08:27:43.958Z,19.30
2017-06-04T08:30:10.222Z,19.30
2017-06-04T08:32:36.677Z,19.30
2017-06-04T08:35:02.974Z,19.50
2017-06-04T08:37:30.035Z,19.70
2017-06-04T08:39:56.309Z,19.70
2017-06-04T08:42:22.597Z,19.80
2017-06-04T08:44:48.926Z,19.70
2017-06-04T08:47:15.232Z,19.70
2017-06-04T08:49:41.531Z,19.80
2017-06-04T08:54:36.252Z,19.90
2017-06-04T08:57:02.570Z,20.00
2017-06-04T08:59:28.874Z,20.00
2017-06-04T09:01:55.162Z,20.00
2017-06-04T09:04:22.218Z,20.00
2017-06-04T09:06:49.297Z,20.00
2017-06-04T09:09:15.572Z,20.00
2017-06-04T09:11:41.883Z,20.00
2017-06-04T09:14:08.537Z,20.10
2017-06-04T09:16:35.198Z,20.20
2017-06-04T09:19:01.545Z,20.00
2017-06-04T09:21:29.734Z,20.10
2017-06-04T09:23:58.218Z,20.20
2017-06-04T09:28:53.405Z,20.40
2017-06-04T09:31:20.074Z,20.30
2017-06-04T09:33:46.442Z,20.30
2017-06-04T09:36:12.912Z,20.50
2017-06-04T09:38:39.922Z,20.70
2017-06-04T09:41:06.221Z,20.70
2017-06-04T09:43:32.567Z,20.70
2017-06-04T09:45:58.898Z,21.00
2017-06-04T09:48:25.221Z,21.10
2017-06-04T09:50:51.479Z,21.10
2017-06-04T09:53:18.523Z,21.10
2017-06-04T09:55:44.842Z,20.90
2017-06-04T09:58:11.863Z,20.50
2017-06-04T10:05:34.256Z,20.10
2017-06-04T10:08:00.554Z,20.00
2017-06-04T10:10:28.330Z,20.00
2017-06-04T10:12:54.610Z,19.90
2017-06-04T10:15:20.874Z,20.00
2017-06-04T10:17:47.158Z,20.40
2017-06-04T10:20:14.174Z,21.20
2017-06-04T10:22:41.584Z,22.00
2017-06-04T10:25:09.104Z,22.50
2017-06-04T10:27:36.114Z,22.30
2017-06-04T10:30:02.415Z,22.40
2017-06-04T10:32:30.445Z,22.30
2017-06-04T10:37:24.795Z,21.80
2017-06-04T10:39:51.839Z,21.60
2017-06-04T10:42:18.164Z,21.50
2017-06-04T10:44:46.147Z,21.20
2017-06-04T10:47:16.234Z,21.00
2017-06-04T10:49:42.730Z,20.90
2017-06-04T10:52:11.144Z,21.10
2017-06-04T10:54:37.437Z,21.60
2017-06-04T10:57:04.226Z,22.30
2017-06-04T10:59:30.602Z,22.70
2017-06-04T11:01:57.635Z,22.70
2017-06-04T11:04:23.950Z,22.90
2017-06-04T11:11:47.833Z,22.60
2017-06-04T11:14:14.191Z,22.40
2017-06-04T11:16:40.560Z,22.20
2017-06-04T11:19:07.723Z,22.00
2017-06-04T11:21:35.111Z,21.60
2017-06-04T11:24:01.515Z,21.40
2017-06-04T11:26:27.954Z,21.20
2017-06-04T11:28:54.375Z,21.10
2017-06-04T11:31:20.798Z,21.00
2017-06-04T11:33:47.094Z,20.90
2017-06-04T11:36:14.178Z,20.80
2017-06-04T11:38:40.451Z,20.70
2017-06-04T11:43:35.878Z,20.70
2017-06-04T11:46:02.934Z,20.80
2017-06-04T11:48:32.658Z,21.00
2017-06-04T11:50:59.718Z,21.00
2017-06-04T11:53:26.748Z,21.00
2017-06-04T11:58:21.099Z,21.30
2017-06-04T12:00:47.389Z,21.60
2017-06-04T12:03:14.451Z,21.80
2017-06-04T12:05:40.775Z,22.10
2017-06-04T12:15:31.333Z,22.00
2017-06-04T12:17:57.631Z,21.90
2017-06-04T12:20:26.531Z,21.90
2017-06-04T12:22:53.955Z,21.80
2017-06-04T12:25:20.234Z,21.70
2017-06-04T12:27:46.615Z,21.70
2017-06-04T12:30:12.913Z,21.60
2017-06-04T12:32:39.221Z,21.50
2017-06-04T12:42:30.959Z,21.30
2017-06-04T12:47:26.074Z,21.60
2017-06-04T12:49:53.934Z,21.70
2017-06-04T12:52:20.286Z,21.80
2017-06-04T12:54:46.556Z,21.60
2017-06-04T12:57:12.866Z,21.80
2017-06-04T13:02:07.131Z,22.10
2017-06-04T13:07:02.560Z,22.20
2017-06-04T13:09:28.858Z,21.90
2017-06-04T13:11:56.118Z,22.00
2017-06-04T13:14:23.985Z,22.30
2017-06-04T13:19:19.808Z,22.30
2017-06-04T13:24:14.920Z,22.10
2017-06-04T13:26:41.210Z,22.20
2017-06-04T13:29:08.355Z,22.30
2017-06-04T13:31:35.051Z,22.30
2017-06-04T13:34:02.097Z,22.40
2017-06-04T13:36:29.328Z,22.50
2017-06-04T13:38:55.630Z,22.20
2017-06-04T13:41:21.923Z,21.50
2017-06-04T13:43:48.247Z,21.20
2017-06-04T13:46:14.550Z,21.10
2017-06-04T13:53:36.836Z,20.80
2017-06-04T13:56:04.912Z,20.80
2017-06-04T13:58:32.342Z,20.80
2017-06-04T14:03:27.971Z,20.90
2017-06-04T14:05:55.676Z,20.90
2017-06-04T14:08:22.292Z,21.10
2017-06-04T14:10:48.983Z,21.10
2017-06-04T14:13:20.553Z,21.10
2017-06-04T14:15:47.075Z,21.30
2017-06-04T14:18:14.803Z,21.40
2017-06-04T14:23:09.402Z,21.60
2017-06-04T14:25:35.784Z,21.70
2017-06-04T14:28:02.116Z,22.20
2017-06-04T14:30:29.539Z,22.40
2017-06-04T14:32:55.862Z,22.60
2017-06-04T14:35:22.210Z,22.80
2017-06-04T14:37:49.703Z,22.80
2017-06-04T14:40:16.032Z,22.70
2017-06-04T14:42:43.059Z,22.50
2017-06-04T14:45:09.367Z,22.00
2017-06-04T14:47:35.750Z,21.60
2017-06-04T14:50:03.617Z,21.40
2017-06-04T14:52:31.519Z,21.30
2017-06-04T14:54:58.167Z,21.20
2017-06-04T14:57:26.138Z,21.10
2017-06-04T14:59:52.442Z,20.80
2017-06-04T15:02:18.775Z,20.80
2017-06-04T15:07:13.211Z,20.50
2017-06-04T15:09:39.566Z,20.50
2017-06-04T15:12:05.844Z,20.40
2017-06-04T15:14:33.610Z,20.50
2017-06-04T15:16:59.913Z,20.60
2017-06-04T15:21:55.467Z,20.60
2017-06-04T15:24:21.812Z,20.50
2017-06-04T15:26:48.114Z,20.60
2017-06-04T15:29:15.990Z,20.40
2017-06-04T15:36:42.858Z,20.60
2017-06-04T15:39:09.130Z,20.80
2017-06-04T15:41:35.466Z,20.70
2017-06-04T15:44:01.811Z,20.80
2017-06-04T15:46:28.071Z,21.00
2017-06-04T15:51:23.467Z,21.20
2017-06-04T15:53:50.478Z,21.40
2017-06-04T15:56:17.535Z,21.30
2017-06-04T16:03:40.750Z,21.50
2017-06-04T16:06:07.406Z,21.40
2017-06-04T16:08:33.724Z,21.40
2017-06-04T16:13:28.146Z,21.40
2017-06-04T16:15:55.551Z,21.30
2017-06-04T16:18:21.844Z,21.30
2017-06-04T16:20:49.618Z,21.20
2017-06-04T16:23:17.482Z,21.20
2017-06-04T16:25:45.445Z,21.10
2017-06-04T16:28:12.636Z,20.90
2017-06-04T16:35:36.496Z,20.70
2017-06-04T16:38:03.531Z,20.70
2017-06-04T16:40:29.871Z,21.00
2017-06-04T16:42:56.664Z,20.90
2017-06-04T16:47:51.227Z,20.90
2017-06-04T16:52:48.388Z,21.20
2017-06-04T16:55:15.414Z,21.10
2017-06-04T16:57:41.707Z,21.30
2017-06-04T17:00:08.095Z,21.30
2017-06-04T17:07:30.507Z,21.40
2017-06-04T17:09:56.834Z,21.60
2017-06-04T17:12:23.126Z,21.50
2017-06-04T17:14:50.162Z,21.50
2017-06-04T17:17:16.446Z,21.50
2017-06-04T17:19:43.910Z,21.40
2017-06-04T17:22:10.224Z,21.20
2017-06-04T17:24:36.719Z,21.20
2017-06-04T17:27:04.157Z,21.10
2017-06-04T17:29:30.457Z,21.10
2017-06-04T17:31:57.858Z,21.00
2017-06-04T17:34:25.293Z,21.00
2017-06-04T17:44:15.710Z,20.90
2017-06-04T17:46:42.770Z,20.90
2017-06-04T17:49:09.067Z,20.90
2017-06-04T17:51:35.710Z,20.90
2017-06-04T17:54:02.366Z,20.90
2017-06-04T17:56:29.050Z,21.00
2017-06-04T17:58:55.368Z,21.00
2017-06-04T18:01:22.392Z,21.00
2017-06-04T18:03:48.703Z,21.10
2017-06-04T18:06:15.392Z,21.00
2017-06-04T18:08:41.699Z,21.10
2017-06-04T18:16:04.163Z,20.90
2017-06-04T18:18:31.203Z,20.90
2017-06-04T18:21:04.360Z,20.90
2017-06-04T18:23:30.685Z,20.80
2017-06-04T18:25:58.488Z,20.90
2017-06-04T18:28:24.790Z,21.00
2017-06-04T18:30:51.092Z,21.10
2017-06-04T18:33:17.367Z,21.10
2017-06-04T18:35:44.402Z,21.10
2017-06-04T18:38:10.738Z,21.00
2017-06-04T18:48:01.083Z,21.10
2017-06-04T18:50:28.130Z,21.10
2017-06-04T18:52:54.431Z,21.00
2017-06-04T18:55:20.794Z,21.10
2017-06-04T18:57:47.068Z,21.10
2017-06-04T19:00:13.370Z,21.10
2017-06-04T19:02:39.661Z,21.00
2017-06-04T19:05:07.135Z,21.00
2017-06-04T19:07:34.910Z,20.90
2017-06-04T19:10:01.991Z,20.90
2017-06-04T19:12:28.375Z,21.00
2017-06-04T19:14:55.839Z,20.80
2017-06-04T19:19:50.219Z,20.70
2017-06-04T19:22:16.531Z,20.60
2017-06-04T19:24:42.810Z,20.30
2017-06-04T19:29:37.198Z,20.20
2017-06-04T19:32:03.502Z,20.20
2017-06-04T19:34:29.827Z,20.00
2017-06-04T19:36:56.142Z,19.90
2017-06-04T19:39:22.418Z,19.90
2017-06-04T19:41:49.442Z,20.00
2017-06-04T19:44:16.103Z,20.00
2017-06-04T19:46:43.155Z,20.00
2017-06-04T19:49:09.504Z,20.00
2017-06-04T19:56:31.947Z,20.10
2017-06-04T20:01:27.688Z,20.00
2017-06-04T20:08:51.558Z,20.20
2017-06-04T20:13:46.011Z,20.00
2017-06-04T20:16:13.460Z,19.90
2017-06-04T20:18:39.837Z,20.00
2017-06-04T20:26:04.605Z,19.90
2017-06-04T20:28:31.362Z,19.90
2017-06-04T20:33:27.615Z,19.70
2017-06-04T20:35:54.698Z,19.50
2017-06-04T20:38:21.024Z,19.50
2017-06-04T20:43:17.076Z,19.30
2017-06-04T20:45:44.997Z,19.20
2017-06-04T20:48:11.386Z,19.20
2017-06-04T21:00:31.807Z,19.00
2017-06-04T21:02:58.966Z,19.00
2017-06-04T21:05:25.630Z,18.90
2017-06-04T21:07:52.751Z,18.90
2017-06-04T21:10:19.525Z,18.80
2017-06-04T21:12:45.835Z,18.80
2017-06-04T21:15:12.173Z,18.80
2017-06-04T21:17:38.863Z,18.70
2017-06-04T21:20:06.647Z,18.60
2017-06-04T21:22:34.546Z,18.60
2017-06-04T21:27:30.252Z,18.50
2017-06-04T21:29:57.686Z,18.40
2017-06-04T21:32:26.229Z,18.50
2017-06-04T21:34:52.633Z,18.40
2017-06-04T21:37:20.001Z,18.40
2017-06-04T21:39:46.638Z,18.30
2017-06-04T21:44:41.814Z,18.20
2017-06-04T21:47:08.715Z,18.10
2017-06-04T21:49:36.127Z,18.00
2017-06-04T21:52:06.492Z,18.00
2017-06-04T21:59:30.897Z,17.90
2017-06-04T22:01:57.648Z,17.70
2017-06-04T22:04:24.534Z,17.60
2017-06-04T22:09:20.292Z,17.50
2017-06-04T22:11:48.423Z,17.40
2017-06-04T22:14:15.666Z,17.40
2017-06-04T22:16:42.174Z,17.30
2017-06-04T22:24:13.826Z,17.20
2017-06-04T22:29:08.704Z,17.10
2017-06-04T22:31:36.306Z,17.10
2017-06-04T22:34:02.846Z,17.10
2017-06-04T22:36:29.362Z,17.10
2017-06-04T22:38:56.626Z,17.20
2017-06-04T22:41:23.132Z,17.30
2017-06-04T22:43:51.186Z,17.30
2017-06-04T22:46:23.965Z,17.40
2017-06-04T22:56:16.467Z,17.50
2017-06-04T22:58:43.396Z,17.50
2017-06-04T23:01:09.904Z,17.50
2017-06-04T23:03:36.505Z,17.50
2017-06-04T23:06:03.796Z,17.50
2017-06-04T23:10:59.734Z,17.50
2017-06-04T23:13:27.064Z,17.50
2017-06-04T23:15:53.966Z,17.50
2017-06-04T23:18:20.546Z,17.50
2017-06-04T23:25:44.292Z,17.60
2017-06-04T23:28:10.801Z,17.60
2017-06-04T23:30:38.437Z,17.60
2017-06-04T23:33:04.971Z,17.70
2017-06-04T23:35:32.220Z,17.70
2017-06-04T23:37:58.764Z,17.70
2017-06-04T23:40:25.289Z,17.80
2017-06-04T23:42:52.413Z,17.80
2017-06-04T23:45:19.683Z,17.70
2017-06-04T23:47:46.263Z,17.80
2017-06-04T23:57:38.934Z,17.80
